Time;durP1;ratioP1;P1;durP2;ratioP2;P2;SDS_P1;SDS_P2;PMS_P1;PMS_P2;Temp;Humidity;BMP_temperature;BMP_pressure;BME280_temperature;BME280_humidity;BME280_pressure;Samples;Min_cycle;Max_cycle;Signal;HPM_P1;HPM_P2
2022/07/02 00:01:00;;;;;;;11.10;10.10;;;;;;;19.83;57.62;100277.66;5033634;28;20050;-71
2022/07/02 00:03:36;;;;;;;10.10;9.13;;;;;;;19.84;57.61;100282.13;5035358;28;20084;-70
2022/07/02 00:06:05;;;;;;;9.95;8.95;;;;;;;19.81;57.78;100265.84;5040334;28;20050;-70
2022/07/02 00:08:33;;;;;;;14.00;12.67;;;;;;;19.83;57.70;100275.66;5044891;28;20056;-70
2022/07/02 00:11:03;;;;;;;13.75;8.82;;;;;;;19.65;58.04;100252.31;5042223;28;20053;-69
2022/07/02 00:13:30;;;;;;;10.73;9.75;;;;;;;19.78;58.04;100275.84;5032124;28;20060;-69
2022/07/02 00:15:57;;;;;;;11.52;9.48;;;;;;;19.75;57.96;100264.38;5032502;28;20045;-68
2022/07/02 00:18:24;;;;;;;11.73;9.20;;;;;;;19.77;58.08;100279.03;5035770;28;20053;-69
2022/07/02 00:20:51;;;;;;;14.70;11.05;;;;;;;19.35;58.19;100208.28;5036274;28;20088;-70
2022/07/02 00:23:17;;;;;;;9.32;8.45;;;;;;;19.62;57.75;100249.31;5033934;28;20500;-69
2022/07/02 00:25:52;;;;;;;11.73;10.63;;;;;;;19.76;58.15;100268.88;5032879;28;20052;-69
2022/07/02 00:28:22;;;;;;;13.40;10.40;;;;;;;19.79;58.16;100271.00;5033906;28;20219;-69
2022/07/02 00:30:51;;;;;;;13.73;10.90;;;;;;;19.77;58.12;100262.03;5037675;28;20063;-69
2022/07/02 00:33:18;;;;;;;13.18;10.05;;;;;;;19.75;58.07;100276.53;5044301;28;20599;-70
2022/07/02 00:35:46;;;;;;;10.60;9.52;;;;;;;19.63;57.93;100246.19;5037268;28;20045;-69
2022/07/02 00:38:13;;;;;;;10.35;9.20;;;;;;;19.78;58.27;100286.34;5039503;28;20095;-70
2022/07/02 00:40:40;;;;;;;9.63;8.68;;;;;;;19.43;58.05;100221.53;5036322;28;20050;-71
2022/07/02 00:43:07;;;;;;;13.23;8.70;;;;;;;19.68;58.29;100267.78;5037483;28;20077;-70
2022/07/02 00:45:35;;;;;;;12.30;8.57;;;;;;;19.56;58.60;100253.56;5039960;28;20116;-70
2022/07/02 00:48:02;;;;;;;18.25;10.50;;;;;;;19.32;58.60;100229.63;5036015;28;20050;-69
2022/07/02 00:50:29;;;;;;;17.35;9.02;;;;;;;19.53;58.49;100277.75;5052762;28;20124;-71
2022/07/02 00:52:56;;;;;;;11.18;9.13;;;;;;;19.53;58.77;100280.56;5043628;28;20132;-68
2022/07/02 00:55:23;;;;;;;12.73;9.80;;;;;;;19.41;58.88;100275.66;5032436;28;20128;-67
2022/07/02 00:57:50;;;;;;;11.23;8.93;;;;;;;19.41;58.77;100277.69;5041366;28;20079;-69
2022/07/02 01:00:18;;;;;;;10.32;9.32;;;;;;;19.37;59.09;100268.22;5034970;28;20556;-68
2022/07/02 01:02:46;;;;;;;18.17;9.55;;;;;;;19.33;59.31;100264.44;5033945;28;20520;-69
2022/07/02 01:05:17;;;;;;;15.65;9.35;;;;;;;19.06;59.31;100240.34;5035748;28;20120;-69
2022/07/02 01:10:40;;;;;;;;;;;;;;;18.99;60.00;100262.72;5032098;28;20132;-69
2022/07/02 01:13:08;;;;;;;14.95;9.95;;;;;;;18.92;60.02;100255.59;5031752;28;19933;-68
2022/07/02 01:15:40;;;;;;;9.82;8.80;;;;;;;18.82;60.24;100247.53;5033509;28;20124;-69
2022/07/02 01:18:07;;;;;;;18.63;10.05;;;;;;;18.82;60.31;100252.34;5034393;28;20085;-68
2022/07/02 01:20:34;;;;;;;11.35;9.07;;;;;;;18.81;60.67;100257.19;5030512;28;20124;-69
2022/07/02 01:23:02;;;;;;;12.23;9.57;;;;;;;18.83;60.36;100262.50;5030872;28;20086;-69
2022/07/02 01:25:28;;;;;;;10.52;9.55;;;;;;;18.80;60.64;100258.34;5042298;28;20583;-69
2022/07/02 01:27:55;;;;;;;19.30;10.18;;;;;;;18.89;60.47;100261.13;5039856;28;20077;-68
2022/07/02 01:30:22;;;;;;;11.10;9.45;;;;;;;18.91;60.50;100264.44;5039857;28;20080;-71
2022/07/02 01:32:49;;;;;;;17.10;9.02;;;;;;;18.73;60.24;100245.91;5040548;28;20052;-71
2022/07/02 01:35:16;;;;;;;14.60;9.68;;;;;;;18.79;60.48;100256.69;5042785;28;20081;-70
2022/07/02 01:37:43;;;;;;;12.88;9.27;;;;;;;18.70;60.76;100242.59;5051137;28;20091;-66
2022/07/02 01:40:10;;;;;;;11.45;8.65;;;;;;;18.84;60.62;100259.34;5043285;28;20135;-68
2022/07/02 01:42:38;;;;;;;13.82;8.80;;;;;;;18.73;60.84;100231.78;5043813;28;20421;-69
2022/07/02 01:45:05;;;;;;;11.68;8.77;;;;;;;18.78;60.85;100248.56;5040569;28;20085;-68
2022/07/02 01:47:32;;;;;;;12.23;9.50;;;;;;;18.81;60.76;100259.19;5038785;28;20571;-68
2022/07/02 01:49:59;;;;;;;10.25;9.18;;;;;;;18.76;60.65;100250.88;5043383;28;20049;-68
2022/07/02 01:52:26;;;;;;;16.23;8.90;;;;;;;18.66;61.17;100252.91;5035939;28;20081;-69
2022/07/02 01:54:53;;;;;;;11.80;9.50;;;;;;;18.55;61.23;100239.53;5037497;28;20068;-69
2022/07/02 01:57:21;;;;;;;10.55;9.48;;;;;;;18.58;61.65;100255.81;5039996;28;20506;-68
2022/07/02 01:59:48;;;;;;;19.80;10.27;;;;;;;18.57;61.41;100257.00;5072936;28;20076;-68
2022/07/02 02:02:15;;;;;;;11.52;9.85;;;;;;;18.42;61.29;100228.09;5035121;28;20061;-69
2022/07/02 02:04:42;;;;;;;15.35;11.38;;;;;;;18.43;61.94;100254.41;5033488;28;20495;-67
2022/07/02 02:07:10;;;;;;;13.52;10.25;;;;;;;18.03;62.63;100209.53;5040085;28;20467;-68
2022/07/02 02:09:37;;;;;;;12.07;10.15;;;;;;;17.91;62.85;100179.16;5035588;28;20081;-68
2022/07/02 02:12:04;;;;;;;14.23;11.05;;;;;;;18.30;62.75;100235.69;5040881;28;20482;-68
2022/07/02 02:14:31;;;;;;;12.85;11.85;;;;;;;18.34;62.40;100256.44;5041067;28;20092;-68
2022/07/02 02:16:59;;;;;;;16.00;10.70;;;;;;;18.10;62.38;100223.13;5043578;28;20133;-69
2022/07/02 02:19:26;;;;;;;11.63;10.52;;;;;;;18.12;62.48;100249.88;5043259;28;20084;-69
2022/07/02 02:21:53;;;;;;;14.05;11.50;;;;;;;18.09;63.18;100256.22;5047354;28;20528;-69
2022/07/02 02:24:20;;;;;;;12.25;11.02;;;;;;;18.11;62.82;100261.50;5044461;28;20144;-69
2022/07/02 02:26:47;;;;;;;14.57;11.10;;;;;;;18.06;63.15;100253.25;5036814;28;20132;-68
2022/07/02 02:29:13;;;;;;;11.77;9.70;;;;;;;18.06;62.98;100267.38;5033504;28;20496;-70
2022/07/02 02:31:40;;;;;;;12.35;8.63;;;;;;;17.98;63.32;100249.25;5039009;28;20065;-70
2022/07/02 02:34:07;;;;;;;11.48;10.25;;;;;;;17.94;63.10;100242.63;5036454;28;20115;-69
2022/07/02 02:36:34;;;;;;;11.05;9.93;;;;;;;18.02;63.35;100261.56;5036881;28;20148;-68
2022/07/02 02:39:01;;;;;;;16.35;10.50;;;;;;;17.87;63.96;100242.31;5049711;28;20132;-68
2022/07/02 02:41:28;;;;;;;12.98;9.40;;;;;;;17.94;63.73;100253.94;5035015;28;20057;-68
2022/07/02 02:43:55;;;;;;;18.30;9.60;;;;;;;17.65;63.58;100207.47;5044655;28;20132;-69
2022/07/02 02:46:22;;;;;;;20.65;10.30;;;;;;;17.93;63.35;100240.97;5038356;28;20139;-72
2022/07/02 02:48:49;;;;;;;11.52;10.32;;;;;;;18.03;63.43;100260.38;5039123;28;20381;-69
2022/07/02 02:51:16;;;;;;;11.95;10.23;;;;;;;17.87;63.30;100225.38;5042367;28;20087;-71
2022/07/02 02:53:44;;;;;;;12.75;10.18;;;;;;;18.10;63.05;100263.53;5036963;28;20419;-70
2022/07/02 02:56:12;;;;;;;11.18;10.07;;;;;;;18.09;63.09;100259.03;5040267;28;20053;-70
2022/07/02 02:58:39;;;;;;;11.05;9.88;;;;;;;17.96;64.11;100251.59;5035259;28;20456;-70
2022/07/02 03:01:05;;;;;;;11.80;9.65;;;;;;;17.76;64.11;100217.28;5041517;28;20467;-71
2022/07/02 03:03:33;;;;;;;11.55;10.40;;;;;;;17.86;64.14;100238.66;5039080;28;20456;-68
2022/07/02 03:06:00;;;;;;;11.77;9.90;;;;;;;17.83;64.39;100241.34;5035067;28;20447;-70
2022/07/02 03:08:27;;;;;;;9.27;8.35;;;;;;;17.74;64.94;100253.47;5041115;28;20085;-69
2022/07/02 03:10:54;;;;;;;10.43;9.32;;;;;;;17.67;64.69;100227.72;5038203;28;20135;-70
2022/07/02 03:13:21;;;;;;;11.30;9.30;;;;;;;17.68;64.56;100229.41;5035438;28;20137;-72
2022/07/02 03:15:47;;;;;;;11.38;9.15;;;;;;;17.69;64.64;100213.28;5041521;28;20099;-72
2022/07/02 03:18:14;;;;;;;10.95;10.00;;;;;;;17.59;64.87;100208.81;5039817;28;20148;-84
2022/07/02 03:20:42;;;;;;;10.20;9.13;;;;;;;17.83;64.59;100228.03;5038813;28;20050;-70
2022/07/02 03:23:09;;;;;;;14.10;9.38;;;;;;;17.69;64.67;100205.63;5036936;28;20127;-71
2022/07/02 03:25:35;;;;;;;11.20;9.88;;;;;;;17.92;64.09;100230.84;5039298;28;20140;-70
2022/07/02 03:28:02;;;;;;;10.48;9.45;;;;;;;17.91;63.68;100210.22;5034037;28;20139;-70
2022/07/02 03:30:29;;;;;;;16.35;9.68;;;;;;;18.02;63.73;100219.19;5036070;28;20128;-69
2022/07/02 03:32:56;;;;;;;13.32;10.15;;;;;;;17.91;64.27;100212.22;5036953;28;20151;-69
2022/07/02 03:35:23;;;;;;;12.68;9.77;;;;;;;17.84;64.48;100212.75;5034130;28;20136;-70
2022/07/02 03:37:50;;;;;;;10.98;9.93;;;;;;;17.77;64.81;100209.63;5035570;28;20099;-70
2022/07/02 03:40:18;;;;;;;11.48;10.38;;;;;;;17.72;65.31;100204.97;5037079;28;20052;-69
2022/07/02 03:42:44;;;;;;;14.25;9.13;;;;;;;17.60;65.46;100199.16;5042775;28;23565;-70
2022/07/02 03:45:11;;;;;;;10.32;9.48;;;;;;;17.66;65.70;100208.31;5033077;28;20044;-69
2022/07/02 03:47:38;;;;;;;11.63;8.68;;;;;;;17.65;65.62;100213.13;5035427;28;20049;-73
2022/07/02 03:50:05;;;;;;;9.52;8.65;;;;;;;17.64;65.45;100188.88;5033302;28;20144;-70
2022/07/02 03:52:33;;;;;;;12.98;9.18;;;;;;;17.77;65.08;100204.78;5034879;28;20164;-70
2022/07/02 03:54:59;;;;;;;11.15;10.00;;;;;;;17.76;64.76;100199.50;5040131;28;20555;-71
2022/07/02 03:57:26;;;;;;;11.77;8.82;;;;;;;17.80;65.22;100219.41;5038839;28;20108;-69
2022/07/02 03:59:53;;;;;;;10.68;9.00;;;;;;;17.76;64.69;100208.78;5038630;28;20193;-69
2022/07/02 04:02:21;;;;;;;11.18;9.00;;;;;;;17.91;64.63;100232.00;5031216;28;20053;-69
2022/07/02 04:04:48;;;;;;;9.38;8.52;;;;;;;17.95;64.43;100231.00;5041505;28;20390;-68
2022/07/02 04:07:15;;;;;;;11.23;8.45;;;;;;;17.95;64.04;100222.53;5032476;28;20064;-68
2022/07/02 04:09:42;;;;;;;14.35;9.20;;;;;;;18.16;63.74;100242.38;5038907;28;20087;-69
2022/07/02 04:12:09;;;;;;;10.93;8.57;;;;;;;18.19;63.61;100227.59;5034621;28;20148;-70
2022/07/02 04:14:36;;;;;;;9.80;8.70;;;;;;;18.32;63.76;100236.16;5040059;28;20140;-70
2022/07/02 04:17:03;;;;;;;9.38;8.57;;;;;;;18.36;63.13;100237.13;5036050;28;20527;-70
2022/07/02 04:19:31;;;;;;;14.77;8.48;;;;;;;18.29;63.21;100222.69;5038132;28;20543;-70
2022/07/02 04:22:01;;;;;;;15.13;8.73;;;;;;;18.44;63.24;100244.75;5043331;28;20139;-69
2022/07/02 04:24:29;;;;;;;;;;;;;;;18.30;63.07;100239.31;5040052;28;20057;-70
2022/07/02 04:26:56;;;;;;;9.05;8.15;;;;;;;18.24;62.92;100218.06;5038901;28;19921;-69
2022/07/02 04:29:23;;;;;;;9.80;8.90;;;;;;;18.39;62.88;100244.91;5034872;28;20168;-69
2022/07/02 04:31:50;;;;;;;16.13;11.90;;;;;;;18.13;62.76;100203.50;5038418;28;20056;-70
2022/07/02 04:34:17;;;;;;;13.25;8.90;;;;;;;18.38;62.89;100240.44;5037119;28;20053;-69
2022/07/02 04:36:44;;;;;;;11.23;9.18;;;;;;;18.47;62.68;100255.38;5039300;28;20128;-69
2022/07/02 04:39:11;;;;;;;9.43;8.60;;;;;;;18.35;62.65;100230.63;5039424;28;20137;-70
2022/07/02 04:41:37;;;;;;;13.20;8.77;;;;;;;18.42;62.66;100244.25;5035555;28;20132;-69
2022/07/02 04:44:04;;;;;;;12.82;9.18;;;;;;;18.46;62.44;100245.22;5038696;28;20054;-69
2022/07/02 04:46:31;;;;;;;13.55;8.70;;;;;;;18.53;62.76;100259.66;5036943;28;20136;-69
2022/07/02 04:48:58;;;;;;;11.85;10.68;;;;;;;18.51;62.66;100255.53;5034433;28;20114;-69
2022/07/02 04:51:25;;;;;;;9.38;8.38;;;;;;;18.49;62.53;100255.84;5031802;28;20124;-71
2022/07/02 04:53:57;;;;;;;10.82;8.40;;;;;;;18.41;62.39;100240.59;5042329;28;20057;-72
2022/07/02 04:56:27;;;;;;;10.25;8.27;;;;;;;18.46;62.61;100243.25;5036443;28;20145;-71
2022/07/02 04:58:55;;;;;;;8.93;8.02;;;;;;;18.44;62.16;100244.75;5039364;28;20107;-70
2022/07/02 05:01:23;;;;;;;10.77;8.63;;;;;;;18.39;62.54;100247.75;5034800;28;20061;-69
2022/07/02 05:03:51;;;;;;;9.32;8.43;;;;;;;18.40;62.42;100243.78;5040653;28;20049;-68
2022/07/02 05:06:21;;;;;;;10.88;8.32;;;;;;;18.43;62.42;100248.75;5040031;28;20061;-69
2022/07/02 05:08:51;;;;;;;10.68;9.07;;;;;;;18.39;62.35;100240.13;5037106;28;20453;-70
2022/07/02 05:11:19;;;;;;;9.95;9.13;;;;;;;18.27;62.47;100222.22;5034826;28;20120;-69
2022/07/02 05:13:47;;;;;;;12.15;9.70;;;;;;;18.40;62.49;100243.78;5042260;28;20112;-70
2022/07/02 05:16:18;;;;;;;10.95;9.95;;;;;;;18.34;62.98;100251.59;5036461;28;20128;-69
2022/07/02 05:18:45;;;;;;;11.88;10.10;;;;;;;18.36;62.92;100254.06;5039694;28;20056;-68
2022/07/02 05:21:12;;;;;;;10.05;9.15;;;;;;;18.27;62.92;100244.84;5036554;28;20087;-71
2022/07/02 05:23:39;;;;;;;10.82;9.82;;;;;;;18.18;63.10;100230.72;5048867;28;20136;-71
2022/07/02 05:26:06;;;;;;;11.95;9.00;;;;;;;18.29;62.91;100237.69;5046677;28;20475;-70
2022/07/02 05:28:33;;;;;;;10.68;9.55;;;;;;;18.34;62.72;100231.81;5042379;28;20136;-72
2022/07/02 05:31:00;;;;;;;11.23;10.25;;;;;;;18.53;62.81;100248.34;5036831;28;20077;-71
2022/07/02 05:33:27;;;;;;;14.45;10.48;;;;;;;18.67;62.60;100248.94;5046962;28;20064;-70
2022/07/02 05:35:54;;;;;;;15.13;9.68;;;;;;;18.50;62.51;100217.09;5033779;28;20231;-69
2022/07/02 05:38:21;;;;;;;14.20;9.75;;;;;;;18.79;62.38;100255.88;5035084;28;20085;-70
2022/07/02 05:40:48;;;;;;;14.50;10.25;;;;;;;18.87;62.45;100255.81;5042471;28;20164;-70
2022/07/02 05:43:14;;;;;;;11.15;9.98;;;;;;;18.92;62.38;100249.13;5054442;28;20100;-70
2022/07/02 05:45:41;;;;;;;11.95;9.93;;;;;;;19.06;62.06;100257.34;5048339;28;20093;-70
2022/07/02 05:48:15;;;;;;;9.95;9.05;;;;;;;18.64;62.13;100176.06;5037612;28;20049;-72
2022/07/02 05:50:42;;;;;;;11.93;9.25;;;;;;;19.14;62.01;100262.94;5043591;28;20492;-72
2022/07/02 05:53:09;;;;;;;15.55;9.40;;;;;;;19.21;61.95;100261.53;5038462;28;20476;-72
2022/07/02 05:55:35;;;;;;;10.45;8.90;;;;;;;19.26;61.41;100255.69;5043470;28;20466;-71
2022/07/02 05:58:02;;;;;;;10.35;9.40;;;;;;;19.29;61.51;100272.78;5053105;28;20072;-71
2022/07/02 06:00:29;;;;;;;11.38;10.27;;;;;;;19.30;61.60;100282.13;5044217;28;20132;-72
2022/07/02 06:02:56;;;;;;;17.42;10.40;;;;;;;19.20;61.38;100271.22;5042414;28;20387;-71
2022/07/02 06:08:08;;;;;;;10.95;8.85;;;;;;;19.63;61.32;100276.53;5034603;28;20472;-70
2022/07/02 06:10:35;;;;;;;11.80;9.18;;;;;;;19.97;61.02;100288.69;5034085;28;20468;-70
2022/07/02 06:13:02;;;;;;;12.40;8.82;;;;;;;20.18;60.65;100295.09;5047688;28;20136;-70
2022/07/02 06:15:29;;;;;;;11.20;8.73;;;;;;;20.37;60.19;100291.66;5043595;28;20046;-68
2022/07/02 06:17:59;;;;;;;9.90;8.90;;;;;;;20.55;60.04;100272.47;5037847;28;20236;-72
2022/07/02 06:20:26;;;;;;;10.00;9.10;;;;;;;20.73;59.46;100271.03;5044636;28;20081;-71
2022/07/02 06:22:53;;;;;;;9.55;8.10;;;;;;;20.98;59.46;100294.53;5037338;28;20057;-73
2022/07/02 06:25:20;;;;;;;9.27;8.40;;;;;;;20.99;59.19;100295.34;5037893;28;20049;-74
2022/07/02 06:27:47;;;;;;;10.20;9.20;;;;;;;20.94;59.01;100289.94;5038483;28;20589;-72
2022/07/02 06:30:14;;;;;;;14.70;9.98;;;;;;;21.13;58.72;100312.84;5042882;28;20085;-73
2022/07/02 06:32:41;;;;;;;9.88;8.93;;;;;;;21.33;58.45;100311.00;5040193;28;20129;-72
2022/07/02 06:35:08;;;;;;;11.20;10.07;;;;;;;21.48;58.08;100300.94;5032246;28;20052;-72
2022/07/02 06:37:35;;;;;;;12.15;9.77;;;;;;;21.56;58.05;100290.63;5040013;28;20133;-72
2022/07/02 06:40:02;;;;;;;11.02;9.95;;;;;;;21.81;57.59;100297.00;5041960;28;20153;-73
2022/07/02 06:42:29;;;;;;;10.15;9.27;;;;;;;21.97;57.00;100312.91;5040127;28;20053;-72
2022/07/02 06:44:58;;;;;;;11.32;10.23;;;;;;;21.99;57.11;100265.06;5047499;28;20107;-72
2022/07/02 06:47:26;;;;;;;10.00;9.05;;;;;;;22.51;56.61;100314.38;5030455;28;20504;-72
2022/07/02 06:49:55;;;;;;;10.50;8.93;;;;;;;22.74;56.29;100314.56;5032264;28;20133;-73
2022/07/02 06:52:22;;;;;;;10.27;8.80;;;;;;;22.86;55.60;100317.28;5039344;28;20045;-71
2022/07/02 06:54:49;;;;;;;10.50;9.25;;;;;;;22.76;55.30;100326.38;5047507;28;20136;-71
2022/07/02 06:57:16;;;;;;;14.25;11.98;;;;;;;22.64;55.62;100312.28;5037096;28;20491;-72
2022/07/02 06:59:50;;;;;;;10.88;9.80;;;;;;;22.70;54.93;100325.00;5040428;28;20049;-72
2022/07/02 07:02:17;;;;;;;12.00;10.95;;;;;;;22.67;55.31;100320.09;5033265;28;20508;-73
2022/07/02 07:04:44;;;;;;;13.35;12.25;;;;;;;22.80;54.98;100324.44;5042255;28;20053;-72
2022/07/02 07:07:11;;;;;;;11.88;9.93;;;;;;;22.87;54.53;100310.41;5039935;28;20053;-72
2022/07/02 07:09:38;;;;;;;9.77;8.80;;;;;;;23.14;54.41;100320.00;5040097;28;20049;-72
2022/07/02 07:12:06;;;;;;;10.32;9.05;;;;;;;23.54;53.45;100309.50;5033072;28;20407;-72
2022/07/02 07:14:34;;;;;;;13.50;11.57;;;;;;;23.87;52.80;100320.41;5034784;28;20105;-72
2022/07/02 07:17:02;;;;;;;9.70;8.90;;;;;;;23.85;53.01;100315.06;5041747;28;20042;-72
2022/07/02 07:19:29;;;;;;;10.45;9.63;;;;;;;23.85;52.42;100335.03;5042650;28;20096;-72
2022/07/02 07:21:56;;;;;;;11.65;10.48;;;;;;;23.73;52.71;100320.94;5048755;28;20131;-72
2022/07/02 07:24:23;;;;;;;11.63;8.52;;;;;;;23.68;52.71;100341.19;5038258;28;20456;-73
2022/07/02 07:26:50;;;;;;;9.45;8.55;;;;;;;23.42;52.90;100308.44;5037241;28;20567;-72
2022/07/02 07:29:17;;;;;;;11.88;10.98;;;;;;;23.35;52.23;100345.34;5035779;28;20092;-72
2022/07/02 07:31:44;;;;;;;9.75;8.85;;;;;;;23.00;52.97;100331.06;5039775;28;20053;-72
2022/07/02 07:34:11;;;;;;;11.05;10.05;;;;;;;23.01;52.81;100335.59;5035688;28;20045;-71
2022/07/02 07:36:38;;;;;;;9.68;8.88;;;;;;;22.86;52.92;100325.81;5048758;28;20088;-73
2022/07/02 07:39:05;;;;;;;9.63;8.82;;;;;;;22.73;52.54;100315.72;5048876;28;20139;-72
2022/07/02 07:41:32;;;;;;;11.05;9.57;;;;;;;22.70;52.64;100351.47;5031419;28;20077;-71
2022/07/02 07:44:00;;;;;;;13.90;12.45;;;;;;;22.55;52.76;100342.94;5047432;28;20127;-72
2022/07/02 07:46:27;;;;;;;14.63;11.07;;;;;;;22.33;53.31;100342.38;5039159;28;20057;-72
2022/07/02 07:48:54;;;;;;;13.23;11.45;;;;;;;22.20;53.20;100347.31;5046987;28;20052;-73
2022/07/02 07:51:21;;;;;;;12.60;10.38;;;;;;;22.30;53.37;100351.63;5035042;28;20049;-72
2022/07/02 07:53:48;;;;;;;11.52;10.43;;;;;;;22.60;53.43;100357.72;5031841;28;20050;-73
2022/07/02 07:56:17;;;;;;;10.90;9.82;;;;;;;23.03;53.10;100363.69;5039288;28;20061;-71
2022/07/02 07:58:45;;;;;;;12.40;9.38;;;;;;;23.55;52.82;100353.91;5031595;28;20049;-72
2022/07/02 08:01:12;;;;;;;11.15;9.93;;;;;;;24.00;52.41;100355.28;5031347;28;20056;-72
2022/07/02 08:03:39;;;;;;;11.95;9.43;;;;;;;24.49;51.59;100363.19;5040392;28;20054;-72
2022/07/02 08:06:06;;;;;;;12.07;10.93;;;;;;;24.96;51.09;100367.69;5035570;28;20057;-72
2022/07/02 08:08:33;;;;;;;12.15;10.95;;;;;;;25.05;50.42;100365.38;5047922;28;20049;-72
2022/07/02 08:11:00;;;;;;;11.57;10.68;;;;;;;25.21;50.44;100371.78;5033335;28;20124;-73
2022/07/02 08:13:27;;;;;;;11.13;8.60;;;;;;;25.29;50.23;100355.56;5048726;28;20515;-73
2022/07/02 08:15:54;;;;;;;24.50;10.43;;;;;;;25.56;49.82;100356.38;5044758;28;20088;-73
2022/07/02 08:18:21;;;;;;;18.52;10.82;;;;;;;25.87;49.59;100368.66;5032995;28;20111;-73
2022/07/02 08:20:48;;;;;;;36.28;13.98;;;;;;;25.98;49.58;100364.72;5015230;28;20080;-79
2022/07/02 08:23:14;;;;;;;10.70;9.80;;;;;;;26.20;48.73;100360.06;5036667;28;20060;-74
2022/07/02 08:25:41;;;;;;;10.45;9.48;;;;;;;26.16;48.45;100350.63;5030072;28;20064;-73
2022/07/02 08:28:08;;;;;;;13.75;12.55;;;;;;;26.25;48.62;100370.31;5041052;28;20136;-71
2022/07/02 08:30:35;;;;;;;12.07;10.98;;;;;;;26.36;48.32;100361.84;5032987;28;20136;-73
2022/07/02 08:33:02;;;;;;;28.42;13.52;;;;;;;26.43;48.30;100348.47;5039007;28;20056;-72
2022/07/02 08:35:29;;;;;;;21.48;10.15;;;;;;;26.80;47.67;100361.09;5036991;28;20140;-73
2022/07/02 08:37:56;;;;;;;22.63;10.05;;;;;;;27.21;47.04;100366.75;5038666;28;20163;-72
2022/07/02 08:40:25;;;;;;;10.57;8.88;;;;;;;27.36;46.68;100357.88;5053356;28;20048;-72
2022/07/02 08:42:53;;;;;;;12.55;8.70;;;;;;;27.46;46.57;100373.50;5043072;28;20096;-74
2022/07/02 08:45:23;;;;;;;46.80;11.90;;;;;;;27.75;46.16;100374.47;5046332;28;20098;-72
2022/07/02 08:47:55;;;;;;;13.65;8.85;;;;;;;28.05;46.06;100367.66;5045873;28;20084;-72
2022/07/02 08:50:23;;;;;;;10.32;9.25;;;;;;;28.26;45.42;100355.44;5034461;28;20490;-73
2022/07/02 08:52:53;;;;;;;9.70;8.80;;;;;;;28.54;44.95;100352.63;5045387;28;20057;-72
2022/07/02 08:55:21;;;;;;;9.88;8.93;;;;;;;28.82;43.98;100365.38;5035902;28;20575;-73
2022/07/02 08:57:50;;;;;;;10.43;8.88;;;;;;;28.96;43.84;100351.03;5041964;28;20061;-73
2022/07/02 09:00:20;;;;;;;9.88;8.65;;;;;;;29.22;43.40;100363.34;5042252;28;20104;-72
2022/07/02 09:02:55;;;;;;;9.95;9.05;;;;;;;28.98;43.50;100339.91;5039425;28;20088;-73
2022/07/02 09:05:24;;;;;;;9.88;8.88;;;;;;;29.08;43.21;100367.06;5035778;28;20479;-73
2022/07/02 09:07:52;;;;;;;9.98;9.07;;;;;;;29.31;43.03;100348.56;5048307;28;20131;-72
2022/07/02 09:10:20;;;;;;;11.15;10.02;;;;;;;29.63;42.68;100337.81;5044222;28;20534;-74
2022/07/02 09:12:47;;;;;;;12.60;10.13;;;;;;;29.67;42.22;100346.41;5042218;28;20155;-72
2022/07/02 09:15:14;;;;;;;15.60;12.95;;;;;;;29.73;42.54;100336.94;5042933;28;20088;-73
2022/07/02 09:17:42;;;;;;;11.75;10.65;;;;;;;30.25;41.93;100356.47;5037513;28;20053;-71
2022/07/02 09:20:11;;;;;;;11.32;10.32;;;;;;;30.50;40.97;100349.75;5037266;28;20057;-72
2022/07/02 09:22:44;;;;;;;13.07;12.07;;;;;;;30.56;40.95;100333.63;5041551;28;20140;-73
2022/07/02 09:25:24;;;;;;;11.38;10.05;;;;;;;30.79;40.67;100344.59;5033896;28;20167;-73
2022/07/02 09:28:00;;;;;;;18.65;11.45;;;;;;;30.64;40.69;100346.75;5041741;28;20151;-73
2022/07/02 09:30:32;;;;;;;12.40;10.80;;;;;;;30.93;39.79;100356.00;5034143;28;20512;-72
2022/07/02 09:35:46;;;;;;;10.25;9.35;;;;;;;31.01;39.32;100336.59;5037267;28;20494;-73
2022/07/02 09:38:13;;;;;;;15.35;14.02;;;;;;;31.13;39.35;100336.06;5043896;28;20051;-72
2022/07/02 09:40:54;;;;;;;12.02;11.00;;;;;;;31.38;39.28;100350.25;5034678;28;20049;-72
2022/07/02 09:43:32;;;;;;;11.15;10.07;;;;;;;31.21;39.14;100349.16;5036639;28;20088;-70
2022/07/02 09:46:00;;;;;;;11.60;10.50;;;;;;;30.87;39.80;100341.25;5035399;28;20051;-71
2022/07/02 09:48:28;;;;;;;11.15;10.13;;;;;;;30.92;39.74;100337.09;5033230;28;20077;-72
2022/07/02 09:50:55;;;;;;;10.93;10.02;;;;;;;31.10;38.78;100323.31;5037108;28;20516;-71
2022/07/02 09:53:22;;;;;;;12.73;11.82;;;;;;;31.09;38.73;100349.72;5048054;28;20055;-72
2022/07/02 09:55:50;;;;;;;12.57;10.95;;;;;;;30.64;39.39;100332.34;5035847;28;20555;-72
2022/07/02 09:58:25;;;;;;;10.57;9.35;;;;;;;30.11;39.37;100324.84;5039370;28;20057;-71
2022/07/02 10:00:54;;;;;;;11.02;10.23;;;;;;;29.96;40.17;100329.88;5038515;28;20500;-72
2022/07/02 10:03:22;;;;;;;11.30;10.23;;;;;;;29.66;40.18;100327.53;5038926;28;20056;-71
2022/07/02 10:05:52;;;;;;;14.85;12.32;;;;;;;29.50;41.06;100343.19;5042954;28;20068;-71
2022/07/02 10:08:19;;;;;;;12.07;9.75;;;;;;;29.34;40.90;100342.78;5043542;28;20492;-71
2022/07/02 10:10:47;;;;;;;11.48;10.23;;;;;;;29.32;41.09;100348.13;5039885;28;20051;-71
2022/07/02 10:13:15;;;;;;;14.07;12.80;;;;;;;29.58;41.07;100348.91;5034069;28;20148;-72
2022/07/02 10:15:55;;;;;;;11.57;10.38;;;;;;;29.65;40.86;100338.22;5033556;28;20180;-72
2022/07/02 10:18:24;;;;;;;10.88;9.70;;;;;;;29.51;41.02;100344.81;5036021;28;20130;-74
2022/07/02 10:20:52;;;;;;;;;;;;;;;29.11;41.71;100339.53;5041552;28;20565;-73
2022/07/02 10:23:20;;;;;;;17.38;15.57;;;;;;;29.30;41.36;100339.13;5066301;28;20027;-73
2022/07/02 10:25:48;;;;;;;13.68;11.75;;;;;;;29.54;40.94;100348.91;5044940;28;20075;-73
2022/07/02 10:28:15;;;;;;;16.83;11.60;;;;;;;29.41;41.15;100364.97;5034410;28;20492;-73
2022/07/02 10:30:42;;;;;;;15.88;14.45;;;;;;;29.20;41.62;100358.03;5035485;28;20302;-73
2022/07/02 10:33:27;;;;;;;12.65;11.45;;;;;;;29.07;41.43;100353.09;5041393;28;20052;-70
2022/07/02 10:35:57;;;;;;;14.95;11.95;;;;;;;29.17;41.29;100340.78;5040541;28;20098;-72
2022/07/02 10:38:39;;;;;;;13.05;11.60;;;;;;;29.85;40.66;100347.19;5040533;28;20087;-72
2022/07/02 10:41:09;;;;;;;13.93;12.30;;;;;;;30.32;40.10;100346.97;5045686;28;20215;-74
2022/07/02 10:43:38;;;;;;;15.82;13.07;;;;;;;30.49;39.87;100339.44;5035961;28;20053;-73
2022/07/02 10:46:06;;;;;;;13.73;12.38;;;;;;;30.57;39.65;100330.34;5038174;28;20144;-73
2022/07/02 10:48:35;;;;;;;17.23;11.93;;;;;;;31.13;39.32;100367.78;5036125;28;20372;-71
2022/07/02 10:51:03;;;;;;;14.18;12.45;;;;;;;31.51;38.49;100370.75;5038142;28;20219;-73
2022/07/02 10:53:30;;;;;;;15.82;12.38;;;;;;;31.89;38.68;100356.31;5037697;28;20507;-72
2022/07/02 10:55:59;;;;;;;14.63;13.18;;;;;;;32.14;37.49;100344.41;5044797;28;20052;-73
2022/07/02 10:58:36;;;;;;;17.60;14.23;;;;;;;32.39;37.31;100344.88;5032223;28;20053;-72
2022/07/02 11:01:14;;;;;;;18.15;15.60;;;;;;;32.45;37.32;100359.72;5040832;28;20057;-73
2022/07/02 11:03:55;;;;;;;20.90;18.55;;;;;;;32.55;36.86;100347.16;5045768;28;20051;-74
2022/07/02 11:06:25;;;;;;;21.27;16.13;;;;;;;32.80;36.66;100364.09;5046197;28;20059;-74
2022/07/02 11:09:07;;;;;;;16.67;14.30;;;;;;;32.59;36.88;100365.28;5048578;28;20602;-72
2022/07/02 11:11:40;;;;;;;18.70;13.93;;;;;;;32.78;36.70;100366.59;5043749;28;20081;-72
2022/07/02 11:14:12;;;;;;;18.50;16.60;;;;;;;32.74;36.27;100336.94;5039493;28;20202;-72
2022/07/02 11:16:44;;;;;;;18.02;15.48;;;;;;;32.84;36.37;100358.25;5038165;28;20507;-73
2022/07/02 11:19:24;;;;;;;19.45;15.63;;;;;;;32.50;36.65;100336.91;5043142;28;20873;-73
2022/07/02 11:21:59;;;;;;;19.90;14.23;;;;;;;32.33;36.60;100361.88;5047129;28;20053;-73
2022/07/02 11:24:28;;;;;;;18.13;13.85;;;;;;;32.05;36.75;100360.22;5043798;28;20136;-72
2022/07/02 11:26:55;;;;;;;20.10;15.13;;;;;;;31.89;37.04;100368.66;5041017;28;20492;-73